Observation data for Jayton on 08/15/2019      Previous  Date       Current Mesonet Observations  Soil Data  Daily Summary Page  Observations in Plain Language
KJTS 150500Z 10008KT 28/18 A3009 RMK A01 T02790181  RH  058%=      5-min Rain = 0
KJTS 150505Z 10008KT 28/18 A3009 RMK A01 T02780182  RH  059%=      5-min Rain = 0
KJTS 150510Z 10009KT 28/18 A3009 RMK A01 T02780181  RH  059%=      5-min Rain = 0
KJTS 150515Z 10008KT 28/18 A3009 RMK A01 T02780182  RH  059%=      5-min Rain = 0
KJTS 150520Z 10009KT 28/18 A3009 RMK A01 T02770182  RH  059%=      5-min Rain = 0
KJTS 150525Z 10009KT 28/18 A301 RMK A01 T02760181  RH  059%=      5-min Rain = 0
KJTS 150530Z 10008KT 28/18 A301 RMK A01 T02760181  RH  060%=      5-min Rain = 0
KJTS 150535Z 10008KT 28/18 A3011 RMK A01 T02750181  RH  060%=      5-min Rain = 0
KJTS 150540Z 10008KT 27/18 A3011 RMK A01 T02740182  RH  060%=      5-min Rain = 0
KJTS 150545Z 10009KT 27/18 A3011 RMK A01 T02740182  RH  060%=      5-min Rain = 0
KJTS 150550Z 10009KT 27/18 A3011 RMK A01 T02730182  RH  060%=      5-min Rain = 0
KJTS 150555Z 10009KT 27/18 A3011 RMK A01 T02720182  RH  061%=      5-min Rain = 0
KJTS 150600Z 10008KT 27/18 A3011 RMK A01 T02700181  RH  061%=      5-min Rain = 0
KJTS 150605Z 10009KT 27/18 A3011 RMK A01 T02700181  RH  061%=      5-min Rain = 0
KJTS 150610Z 10010KT 27/18 A3011 RMK A01 T02710181  RH  061%=      5-min Rain = 0
KJTS 150615Z 11009KT 27/18 A3011 RMK A01 T02700182  RH  062%=      5-min Rain = 0
KJTS 150620Z 11009KT 27/18 A3011 RMK A01 T02690182  RH  062%=      5-min Rain = 0
KJTS 150625Z 11008KT 27/18 A3011 RMK A01 T02680183  RH  063%=      5-min Rain = 0
KJTS 150630Z 12008KT 27/18 A3011 RMK A01 T02680183  RH  063%=      5-min Rain = 0
KJTS 150635Z 11007KT 27/18 A3011 RMK A01 T02660183  RH  064%=      5-min Rain = 0
KJTS 150640Z 11008KT 27/18 A3011 RMK A01 T02650183  RH  064%=      5-min Rain = 0
KJTS 150645Z 11008KT 27/18 A3011 RMK A01 T02650183  RH  064%=      5-min Rain = 0
KJTS 150650Z 11008KT 26/18 A301 RMK A01 T02630184  RH  065%=      5-min Rain = 0
KJTS 150655Z 11008KT 26/18 A301 RMK A01 T02630184  RH  065%=      5-min Rain = 0
KJTS 150700Z 11007KT 26/19 A301 RMK A01 T02620185  RH  066%=      5-min Rain = 0
KJTS 150705Z 11008KT 26/19 A301 RMK A01 T02610185  RH  066%=      5-min Rain = 0
KJTS 150710Z 11009KT 26/19 A301 RMK A01 T02610185  RH  066%=      5-min Rain = 0
KJTS 150715Z 11008KT 26/19 A301 RMK A01 T02610186  RH  067%=      5-min Rain = 0
KJTS 150720Z 11008KT 26/19 A301 RMK A01 T02600186  RH  067%=      5-min Rain = 0
KJTS 150725Z 11007KT 26/19 A3009 RMK A01 T02590186  RH  068%=      5-min Rain = 0
KJTS 150730Z 11006KT 26/19 A3009 RMK A01 T02580186  RH  068%=      5-min Rain = 0
KJTS 150735Z 11006KT 26/19 A3009 RMK A01 T02570186  RH  069%=      5-min Rain = 0
KJTS 150740Z 11007KT 26/19 A3009 RMK A01 T02560186  RH  069%=      5-min Rain = 0
KJTS 150745Z 11006KT 26/19 A3009 RMK A01 T02550186  RH  069%=      5-min Rain = 0
KJTS 150750Z 11006KT 25/19 A3009 RMK A01 T02530186  RH  070%=      5-min Rain = 0
KJTS 150755Z 11005KT 25/19 A3009 RMK A01 T02520186  RH  071%=      5-min Rain = 0
KJTS 150800Z 10005KT 25/19 A3009 RMK A01 T02500186  RH  071%=      5-min Rain = 0
KJTS 150805Z 10005KT 25/19 A3008 RMK A01 T02490186  RH  072%=      5-min Rain = 0
KJTS 150810Z 10004KT 25/19 A3008 RMK A01 T02480185  RH  072%=      5-min Rain = 0
KJTS 150815Z 10004KT 25/19 A3008 RMK A01 T02450185  RH  073%=      5-min Rain = 0
KJTS 150820Z 11004KT 24/19 A3009 RMK A01 T02440185  RH  074%=      5-min Rain = 0
KJTS 150825Z 11004KT 24/19 A3008 RMK A01 T02430185  RH  074%=      5-min Rain = 0
KJTS 150830Z 11004KT 24/19 A3008 RMK A01 T02420185  RH  074%=      5-min Rain = 0
KJTS 150835Z 11004KT 24/18 A3008 RMK A01 T02410184  RH  074%=      5-min Rain = 0
KJTS 150840Z 12004KT 24/18 A3008 RMK A01 T02400184  RH  075%=      5-min Rain = 0
KJTS 150845Z 12005KT 24/18 A3008 RMK A01 T02390184  RH  075%=      5-min Rain = 0
KJTS 150850Z 11005KT 24/18 A3008 RMK A01 T02380184  RH  076%=      5-min Rain = 0
KJTS 150855Z 11005KT 24/18 A3008 RMK A01 T02370184  RH  076%=      5-min Rain = 0
KJTS 150900Z 11005KT 24/18 A3008 RMK A01 T02360184  RH  077%=      5-min Rain = 0
KJTS 150905Z 10004KT 24/18 A3008 RMK A01 T02360184  RH  077%=      5-min Rain = 0
KJTS 150910Z 11005KT 24/18 A3008 RMK A01 T02360184  RH  077%=      5-min Rain = 0
KJTS 150915Z 11005KT 23/18 A3007 RMK A01 T02340183  RH  077%=      5-min Rain = 0
KJTS 150920Z 11005KT 23/18 A3007 RMK A01 T02330184  RH  078%=      5-min Rain = 0
KJTS 150925Z 11004KT 23/18 A3007 RMK A01 T02330184  RH  078%=      5-min Rain = 0
KJTS 150930Z 12004KT 23/18 A3007 RMK A01 T02330183  RH  078%=      5-min Rain = 0
KJTS 150935Z 12004KT 23/18 A3007 RMK A01 T02330183  RH  078%=      5-min Rain = 0
KJTS 150940Z 12004KT 23/18 A3007 RMK A01 T02320184  RH  078%=      5-min Rain = 0
KJTS 150945Z 12004KT 23/18 A3007 RMK A01 T02320183  RH  078%=      5-min Rain = 0
KJTS 150950Z 12004KT 23/18 A3007 RMK A01 T02300183  RH  079%=      5-min Rain = 0
KJTS 150955Z 13004KT 23/18 A3007 RMK A01 T02290182  RH  079%=      5-min Rain = 0
KJTS 151000Z 12004KT 23/18 A3007 RMK A01 T02270182  RH  080%=      5-min Rain = 0
KJTS 151005Z 12005KT 23/18 A3007 RMK A01 T02260182  RH  080%=      5-min Rain = 0
KJTS 151010Z 12004KT 23/18 A3007 RMK A01 T02270182  RH  080%=      5-min Rain = 0
KJTS 151015Z 12004KT 23/18 A3007 RMK A01 T02270182  RH  080%=      5-min Rain = 0
KJTS 151020Z 13004KT 23/18 A3007 RMK A01 T02270182  RH  080%=      5-min Rain = 0
KJTS 151025Z 13004KT 23/18 A3007 RMK A01 T02270183  RH  080%=      5-min Rain = 0
KJTS 151030Z 14003KT 23/18 A3007 RMK A01 T02270182  RH  080%=      5-min Rain = 0
KJTS 151035Z 14003KT 23/18 A3007 RMK A01 T02280184  RH  080%=      5-min Rain = 0
KJTS 151040Z 12003KT 23/18 A3007 RMK A01 T02310184  RH  079%=      5-min Rain = 0
KJTS 151045Z 11003KT 23/18 A3007 RMK A01 T02310184  RH  079%=      5-min Rain = 0
KJTS 151050Z 12003KT 23/19 A3007 RMK A01 T02310185  RH  079%=      5-min Rain = 0
KJTS 151055Z 12002KT 23/19 A3007 RMK A01 T02320185  RH  079%=      5-min Rain = 0
KJTS 151100Z 13001KT 23/19 A3007 RMK A01 T02320185  RH  079%=      5-min Rain = 0
KJTS 151105Z 26000KT 23/18 A3007 RMK A01 T02270181  RH  079%=      5-min Rain = 0
KJTS 151110Z 26003KT 22/18 A3007 RMK A01 T02220182  RH  082%=      5-min Rain = 0
KJTS 151115Z 26002KT 22/18 A3007 RMK A01 T02210183  RH  083%=      5-min Rain = 0
KJTS 151120Z 26002KT 22/18 A3007 RMK A01 T02240184  RH  082%=      5-min Rain = 0
KJTS 151125Z 25002KT 23/18 A3007 RMK A01 T02250184  RH  082%=      5-min Rain = 0
KJTS 151130Z 25002KT 23/19 A3007 RMK A01 T02270185  RH  081%=      5-min Rain = 0
KJTS 151135Z 25001KT 23/18 A3007 RMK A01 T02260184  RH  081%=      5-min Rain = 0
KJTS 151140Z 25000KT 23/18 A3007 RMK A01 T02250183  RH  081%=      5-min Rain = 0
KJTS 151145Z 00000KT 22/18 A3008 RMK A01 T02210181  RH  083%=      5-min Rain = 0
KJTS 151150Z 34000KT 22/18 A3008 RMK A01 T02220183  RH  083%=      5-min Rain = 0
KJTS 151155Z 35001KT 22/18 A3008 RMK A01 T02240184  RH  083%=      5-min Rain = 0
KJTS 151200Z 02002KT 22/18 A3008 RMK A01 T02240184  RH  082%=      5-min Rain = 0
KJTS 151205Z 03002KT 23/19 A3008 RMK A01 T02250185  RH  082%=      5-min Rain = 0
KJTS 151210Z 03003KT 23/19 A3009 RMK A01 T02270185  RH  081%=      5-min Rain = 0
KJTS 151215Z 03003KT 23/19 A3009 RMK A01 T02280186  RH  081%=      5-min Rain = 0
KJTS 151220Z 03003KT 23/19 A3009 RMK A01 T02280185  RH  081%=      5-min Rain = 0
KJTS 151225Z 02002KT 22/18 A3009 RMK A01 T02230182  RH  082%=      5-min Rain = 0
KJTS 151230Z 02003KT 23/18 A3009 RMK A01 T02250184  RH  082%=      5-min Rain = 0
KJTS 151235Z 02003KT 23/19 A3009 RMK A01 T02290185  RH  081%=      5-min Rain = 0
KJTS 151240Z 01003KT 23/19 A3009 RMK A01 T02290185  RH  081%=      5-min Rain = 0
KJTS 151245Z 35003KT 23/19 A3009 RMK A01 T02300186  RH  080%=      5-min Rain = 0
KJTS 151250Z 34003KT 23/19 A3009 RMK A01 T02310187  RH  081%=      5-min Rain = 0
KJTS 151255Z 36003KT 23/19 A3009 RMK A01 T02330188  RH  080%=      5-min Rain = 0
KJTS 151300Z 01003KT 24/19 A301 RMK A01 T02380188  RH  077%=      5-min Rain = 0
KJTS 151305Z 00003KT 24/19 A301 RMK A01 T02420188  RH  076%=      5-min Rain = 0
KJTS 151310Z 00002KT 25/19 A301 RMK A01 T02450188  RH  074%=      5-min Rain = 0
KJTS 151315Z 00003KT 25/19 A301 RMK A01 T02480189  RH  074%=      5-min Rain = 0
KJTS 151320Z 01003KT 25/19 A3011 RMK A01 T02520190  RH  072%=      5-min Rain = 0
KJTS 151325Z 01003KT 26/19 A3011 RMK A01 T02560191  RH  071%=      5-min Rain = 0
KJTS 151330Z 01003KT 26/19 A3011 RMK A01 T02580191  RH  070%=      5-min Rain = 0
KJTS 151335Z 02003KT 26/19 A3011 RMK A01 T02620193  RH  069%=      5-min Rain = 0
KJTS 151340Z 02002KT 27/19 A3011 RMK A01 T02660194  RH  068%=      5-min Rain = 0
KJTS 151345Z 01002KT 27/20 A3011 RMK A01 T02680195  RH  068%=      5-min Rain = 0
KJTS 151350Z 03003KT 27/20 A3011 RMK A01 T02730195  RH  066%=      5-min Rain = 0
KJTS 151355Z 04003KT 27/20 A3011 RMK A01 T02740195  RH  066%=      5-min Rain = 0
KJTS 151400Z 03003KT 27/20 A3011 RMK A01 T02740195  RH  066%=      5-min Rain = 0
KJTS 151405Z 03003KT 28/19 A3011 RMK A01 T02750194  RH  065%=      5-min Rain = 0
KJTS 151410Z 05002KT 28/19 A3011 RMK A01 T02800193  RH  063%=      5-min Rain = 0
KJTS 151415Z 08003KT 29/19 A301 RMK A01 T02860192  RH  060%=      5-min Rain = 0
KJTS 151420Z 11005KT 29/19 A301 RMK A01 T02880190  RH  058%=      5-min Rain = 0
KJTS 151425Z 09004KT 29/19 A301 RMK A01 T02910191  RH  058%=      5-min Rain = 0
KJTS 151430Z 10005KT 29/19 A301 RMK A01 T02920189  RH  057%=      5-min Rain = 0
KJTS 151435Z 12005KT 29/19 A301 RMK A01 T02920189  RH  057%=      5-min Rain = 0
KJTS 151440Z 11006KT 30/19 A3009 RMK A01 T02950189  RH  056%=      5-min Rain = 0
KJTS 151445Z 11006KT 30/19 A3009 RMK A01 T02960190  RH  056%=      5-min Rain = 0
KJTS 151450Z 10007KT 30/19 A301 RMK A01 T02990190  RH  055%=      5-min Rain = 0
KJTS 151455Z 10006KT 30/19 A301 RMK A01 T03000190  RH  055%=      5-min Rain = 0
KJTS 151500Z 10005KT 30/19 A301 RMK A01 T03040190  RH  053%=      5-min Rain = 0
KJTS 151505Z 12005KT 30/19 A301 RMK A01 T03030189  RH  053%=      5-min Rain = 0
KJTS 151510Z 13006KT 31/19 A301 RMK A01 T03060187  RH  052%=      5-min Rain = 0
KJTS 151515Z 14004KT 31/19 A301 RMK A01 T03070188  RH  052%=      5-min Rain = 0
KJTS 151520Z 15003KT 31/19 A301 RMK A01 T03110189  RH  051%=      5-min Rain = 0
KJTS 151525Z 19001KT 31/19 A3011 RMK A01 T03090189  RH  051%=      5-min Rain = 0
KJTS 151530Z 18003KT 31/19 A3011 RMK A01 T03120187  RH  050%=      5-min Rain = 0
KJTS 151535Z 03002KT 32/19 A3011 RMK A01 T03160187  RH  049%=      5-min Rain = 0
KJTS 151540Z 34005KT 31/19 A3012 RMK A01 T03140188  RH  050%=      5-min Rain = 0
KJTS 151545Z 02003KT 32/19 A3012 RMK A01 T03170188  RH  049%=      5-min Rain = 0
KJTS 151550Z 03002KT 32/19 A3011 RMK A01 T03180186  RH  048%=      5-min Rain = 0
KJTS 151555Z 13003KT 32/19 A3011 RMK A01 T03200186  RH  048%=      5-min Rain = 0
KJTS 151605Z 12002KT 32/19 A3011 RMK A01 T03240187  RH  047%=      5-min Rain = 0
KJTS 151610Z 11005KT 32/19 A3011 RMK A01 T03240186  RH  046%=      5-min Rain = 0
KJTS 151615Z 08004KT 32/19 A3011 RMK A01 T03230185  RH  046%=      5-min Rain = 0
KJTS 151620Z 16003KT 33/18 A3011 RMK A01 T03250184  RH  046%=      5-min Rain = 0
KJTS 151625Z 19002KT 32/18 A3011 RMK A01 T03230183  RH  046%=      5-min Rain = 0
KJTS 151630Z 22002KT 33/18 A3011 RMK A01 T03250183  RH  045%=      5-min Rain = 0
KJTS 151635Z 07003KT 33/18 A301 RMK A01 T03340184  RH  043%=      5-min Rain = 0
KJTS 151640Z 06005KT 33/18 A301 RMK A01 T03330181  RH  043%=      5-min Rain = 0
KJTS 151645Z 06005KT 33/18 A3009 RMK A01 T03310179  RH  043%=      5-min Rain = 0
KJTS 151650Z 08004G9KT 33/18 A3009 RMK A01 T03330180  RH  042%=      5-min Rain = 0
KJTS 151655Z 10005KT 33/18 A3008 RMK A01 T03340179  RH  042%=      5-min Rain = 0
KJTS 151700Z 21003KT 33/18 A3008 RMK A01 T03320179  RH  042%=      5-min Rain = 0
KJTS 151705Z 14006G13KT 34/18 A3008 RMK A01 T03350182  RH  042%=      5-min Rain = 0
KJTS 151710Z 15008KT 34/18 A3007 RMK A01 T03380179  RH  041%=      5-min Rain = 0
KJTS 151715Z 14006G12KT 34/18 A3006 RMK A01 T03420175  RH  039%=      5-min Rain = 0
KJTS 151720Z 15002G7KT 34/17 A3006 RMK A01 T03410170  RH  038%=      5-min Rain = 0
KJTS 151725Z 13006KT 35/18 A3006 RMK A01 T03470176  RH  038%=      5-min Rain = 0
KJTS 151730Z 12009KT 35/18 A3005 RMK A01 T03470175  RH  038%=      5-min Rain = 0
KJTS 151735Z 12010G18KT 35/17 A3005 RMK A01 T03450174  RH  038%=      5-min Rain = 0
KJTS 151740Z 13009G14KT 35/18 A3004 RMK A01 T03450175  RH  038%=      5-min Rain = 0
KJTS 151745Z 15012KT 35/18 A3005 RMK A01 T03490175  RH  037%=      5-min Rain = 0
KJTS 151750Z 15007KT 35/17 A3005 RMK A01 T03460172  RH  037%=      5-min Rain = 0
KJTS 151755Z 16007KT 35/17 A3004 RMK A01 T03520174  RH  037%=      5-min Rain = 0
KJTS 151800Z 17006G13KT 36/17 A3004 RMK A01 T03560173  RH  036%=      5-min Rain = 0
KJTS 151805Z 18009G17KT 35/17 A3004 RMK A01 T03520172  RH  036%=      5-min Rain = 0
KJTS 151810Z 16007G13KT 35/17 A3004 RMK A01 T03540170  RH  035%=      5-min Rain = 0
KJTS 151815Z 16008G13KT 35/17 A3004 RMK A01 T03500170  RH  036%=      5-min Rain = 0
KJTS 151820Z 15006G11KT 35/17 A3004 RMK A01 T03530169  RH  035%=      5-min Rain = 0
KJTS 151825Z 33003KT 35/17 A3004 RMK A01 T03520167  RH  035%=      5-min Rain = 0
KJTS 151830Z 16007G13KT 36/17 A3003 RMK A01 T03570171  RH  035%=      5-min Rain = 0
KJTS 151835Z 19006KT 36/17 A3003 RMK A01 T03610171  RH  034%=      5-min Rain = 0
KJTS 151840Z 15005G10KT 36/17 A3003 RMK A01 T03620170  RH  034%=      5-min Rain = 0
KJTS 151845Z 17007G12KT 36/17 A3003 RMK A01 T03590172  RH  035%=      5-min Rain = 0
KJTS 151850Z 20005KT 36/17 A3003 RMK A01 T03640170  RH  034%=      5-min Rain = 0
KJTS 151855Z 16008G13KT 36/17 A3003 RMK A01 T03620171  RH  034%=      5-min Rain = 0
KJTS 151900Z 15005KT 37/17 A3003 RMK A01 T03660169  RH  033%=      5-min Rain = 0
KJTS 151905Z 10004G9KT 36/17 A3002 RMK A01 T03610167  RH  033%=      5-min Rain = 0
KJTS 151910Z 16008KT 37/17 A3002 RMK A01 T03660169  RH  033%=      5-min Rain = 0
KJTS 151915Z 15006KT 36/17 A3002 RMK A01 T03620168  RH  033%=      5-min Rain = 0
KJTS 151920Z 18006G11KT 36/17 A3002 RMK A01 T03630169  RH  034%=      5-min Rain = 0
KJTS 151925Z 14008G13KT 36/17 A3001 RMK A01 T03630169  RH  034%=      5-min Rain = 0
KJTS 151930Z 12009KT 36/17 A3001 RMK A01 T03640170  RH  033%=      5-min Rain = 0
KJTS 151935Z 16007G12KT 36/17 A3001 RMK A01 T03630166  RH  033%=      5-min Rain = 0
KJTS 151940Z 14005G10KT 36/17 A3001 RMK A01 T03620165  RH  033%=      5-min Rain = 0
KJTS 151945Z 12005KT 37/17 A3001 RMK A01 T03670165  RH  032%=      5-min Rain = 0
KJTS 151950Z 09006KT 37/16 A30 RMK A01 T03670164  RH  032%=      5-min Rain = 0
KJTS 151955Z 05006KT 36/16 A30 RMK A01 T03640163  RH  032%=      5-min Rain = 0
KJTS 152000Z 05005KT 36/16 A30 RMK A01 T03620163  RH  032%=      5-min Rain = 0
KJTS 152005Z 09004KT 37/16 A2999 RMK A01 T03660162  RH  031%=      5-min Rain = 0
KJTS 152010Z 13006G13KT 37/16 A2999 RMK A01 T03680164  RH  032%=      5-min Rain = 0
KJTS 152015Z 10006KT 36/16 A2999 RMK A01 T03640161  RH  032%=      5-min Rain = 0
KJTS 152020Z 08004KT 37/16 A2998 RMK A01 T03650157  RH  031%=      5-min Rain = 0
KJTS 152025Z 07004KT 36/15 A2998 RMK A01 T03570154  RH  031%=      5-min Rain = 0
KJTS 152030Z 06004KT 37/16 A2998 RMK A01 T03650156  RH  030%=      5-min Rain = 0
KJTS 152035Z 10006G13KT 37/16 A2998 RMK A01 T03670159  RH  031%=      5-min Rain = 0
KJTS 152040Z 12005G12KT 36/16 A2998 RMK A01 T03620159  RH  032%=      5-min Rain = 0
KJTS 152045Z 07004KT 36/16 A2997 RMK A01 T03570155  RH  031%=      5-min Rain = 0
KJTS 152050Z 08004KT 36/16 A2997 RMK A01 T03550155  RH  032%=      5-min Rain = 0
KJTS 152055Z 10006G11KT 36/15 A2997 RMK A01 T03550152  RH  031%=      5-min Rain = 0
KJTS 152100Z 08005KT 36/15 A2997 RMK A01 T03550149  RH  031%=      5-min Rain = 0
KJTS 152105Z 10002KT 36/15 A2997 RMK A01 T03570152  RH  031%=      5-min Rain = 0
KJTS 152110Z 13005KT 36/16 A2996 RMK A01 T03590155  RH  031%=      5-min Rain = 0
KJTS 152115Z 07002KT 36/15 A2996 RMK A01 T03600152  RH  030%=      5-min Rain = 0
KJTS 152120Z 11004G9KT 37/15 A2996 RMK A01 T03700152  RH  029%=      5-min Rain = 0
KJTS 152125Z 14003KT 37/15 A2996 RMK A01 T03740150  RH  028%=      5-min Rain = 0
KJTS 152130Z 11004KT 38/15 A2996 RMK A01 T03780151  RH  027%=      5-min Rain = 0
KJTS 152135Z 10004KT 38/15 A2996 RMK A01 T03780150  RH  027%=      5-min Rain = 0
KJTS 152140Z 11005G10KT 38/15 A2995 RMK A01 T03760152  RH  028%=      5-min Rain = 0
KJTS 152145Z 14008G13KT 38/15 A2995 RMK A01 T03780152  RH  028%=      5-min Rain = 0
KJTS 152150Z 15005KT 38/15 A2995 RMK A01 T03790150  RH  027%=      5-min Rain = 0
KJTS 152155Z 10009G14KT 37/16 A2995 RMK A01 T03730156  RH  029%=      5-min Rain = 0
KJTS 152200Z 12011KT 37/16 A2995 RMK A01 T03710156  RH  029%=      5-min Rain = 0
KJTS 152205Z 12004G9KT 38/15 A2995 RMK A01 T03750154  RH  028%=      5-min Rain = 0
KJTS 152210Z 12006G11KT 38/15 A2995 RMK A01 T03750154  RH  028%=      5-min Rain = 0
KJTS 152215Z 11008G13KT 37/15 A2994 RMK A01 T03740154  RH  028%=      5-min Rain = 0
KJTS 152220Z 11008G14KT 37/15 A2994 RMK A01 T03650151  RH  029%=      5-min Rain = 0
KJTS 152225Z 12005G14KT 36/15 A2994 RMK A01 T03640151  RH  029%=      5-min Rain = 0
KJTS 152230Z 11009KT 37/15 A2994 RMK A01 T03660150  RH  029%=      5-min Rain = 0
KJTS 152235Z 12009KT 37/15 A2994 RMK A01 T03700152  RH  029%=      5-min Rain = 0
KJTS 152240Z 12010KT 37/15 A2994 RMK A01 T03690152  RH  029%=      5-min Rain = 0
KJTS 152245Z 12011KT 37/15 A2994 RMK A01 T03690151  RH  029%=      5-min Rain = 0
KJTS 152250Z 13009KT 37/15 A2994 RMK A01 T03670151  RH  029%=      5-min Rain = 0
KJTS 152255Z 12009KT 37/15 A2993 RMK A01 T03680152  RH  029%=      5-min Rain = 0
KJTS 152300Z 13011KT 37/15 A2993 RMK A01 T03690151  RH  029%=      5-min Rain = 0
KJTS 152305Z 13010G15KT 37/15 A2993 RMK A01 T03700152  RH  029%=      5-min Rain = 0
KJTS 152310Z 12013KT 37/15 A2993 RMK A01 T03670153  RH  029%=      5-min Rain = 0
KJTS 152315Z 12012KT 36/15 A2993 RMK A01 T03620151  RH  030%=      5-min Rain = 0
KJTS 152320Z 12012KT 36/15 A2993 RMK A01 T03610151  RH  030%=      5-min Rain = 0
KJTS 152325Z 12011KT 36/15 A2993 RMK A01 T03600150  RH  030%=      5-min Rain = 0
KJTS 152330Z 12009KT 36/15 A2993 RMK A01 T03590150  RH  030%=      5-min Rain = 0
KJTS 152335Z 14009KT 36/15 A2993 RMK A01 T03580151  RH  030%=      5-min Rain = 0
KJTS 152340Z 14009KT 36/15 A2993 RMK A01 T03570150  RH  031%=      5-min Rain = 0
KJTS 152345Z 13009KT 36/15 A2993 RMK A01 T03570151  RH  031%=      5-min Rain = 0
KJTS 152350Z 14009KT 36/15 A2992 RMK A01 T03570149  RH  030%=      5-min Rain = 0
KJTS 152355Z 15010KT 36/15 A2992 RMK A01 T03570150  RH  030%=      5-min Rain = 0
KJTS 160000Z 14010KT 36/15 A2992 RMK A01 T03570151  RH  031%=      5-min Rain = 0
KJTS 160005Z 13010KT 36/15 A2992 RMK A01 T03550150  RH  031%=      5-min Rain = 0
KJTS 160010Z 15009KT 35/15 A2992 RMK A01 T03530149  RH  031%=      5-min Rain = 0
KJTS 160015Z 15009KT 35/15 A2992 RMK A01 T03520149  RH  031%=      5-min Rain = 0
KJTS 160020Z 14007KT 35/15 A2992 RMK A01 T03510151  RH  032%=      5-min Rain = 0
KJTS 160025Z 14008KT 35/15 A2992 RMK A01 T03510151  RH  032%=      5-min Rain = 0
KJTS 160030Z 13009KT 35/15 A2992 RMK A01 T03500151  RH  032%=      5-min Rain = 0
KJTS 160035Z 13009G15KT 35/15 A2992 RMK A01 T03490152  RH  032%=      5-min Rain = 0
KJTS 160040Z 13010KT 35/15 A2992 RMK A01 T03510152  RH  032%=      5-min Rain = 0
KJTS 160045Z 13010KT 35/15 A2992 RMK A01 T03520154  RH  032%=      5-min Rain = 0
KJTS 160050Z 13009KT 35/15 A2992 RMK A01 T03510153  RH  032%=      5-min Rain = 0
KJTS 160055Z 14009KT 35/15 A2992 RMK A01 T03500154  RH  032%=      5-min Rain = 0
KJTS 160100Z 14007KT 35/16 A2992 RMK A01 T03490155  RH  033%=      5-min Rain = 0
KJTS 160105Z 14008KT 35/15 A2992 RMK A01 T03460154  RH  033%=      5-min Rain = 0
KJTS 160110Z 14008KT 34/15 A2992 RMK A01 T03440153  RH  033%=      5-min Rain = 0
KJTS 160115Z 14008KT 34/15 A2992 RMK A01 T03430152  RH  033%=      5-min Rain = 0
KJTS 160120Z 14009KT 34/15 A2993 RMK A01 T03420151  RH  033%=      5-min Rain = 0
KJTS 160125Z 14008KT 34/15 A2993 RMK A01 T03410151  RH  033%=      5-min Rain = 0
KJTS 160130Z 14008KT 34/15 A2993 RMK A01 T03400150  RH  034%=      5-min Rain = 0
KJTS 160135Z 14008KT 34/15 A2993 RMK A01 T03380150  RH  034%=      5-min Rain = 0
KJTS 160140Z 14007KT 34/15 A2993 RMK A01 T03350150  RH  034%=      5-min Rain = 0
KJTS 160145Z 14007KT 33/15 A2993 RMK A01 T03340149  RH  034%=      5-min Rain = 0
KJTS 160150Z 14006KT 33/15 A2993 RMK A01 T03320149  RH  035%=      5-min Rain = 0
KJTS 160155Z 14006KT 33/15 A2993 RMK A01 T03300149  RH  035%=      5-min Rain = 0
KJTS 160200Z 13006KT 33/15 A2993 RMK A01 T03270149  RH  036%=      5-min Rain = 0
KJTS 160205Z 13006KT 32/15 A2993 RMK A01 T03240149  RH  037%=      5-min Rain = 0
KJTS 160210Z 13006KT 32/15 A2993 RMK A01 T03220149  RH  037%=      5-min Rain = 0
KJTS 160215Z 13006KT 32/15 A2993 RMK A01 T03190150  RH  038%=      5-min Rain = 0
KJTS 160220Z 13006KT 32/15 A2993 RMK A01 T03160150  RH  038%=      5-min Rain = 0
KJTS 160225Z 13006KT 31/15 A2993 RMK A01 T03130150  RH  039%=      5-min Rain = 0
KJTS 160230Z 13006KT 31/15 A2994 RMK A01 T03100151  RH  040%=      5-min Rain = 0
KJTS 160235Z 13006KT 31/15 A2994 RMK A01 T03070151  RH  040%=      5-min Rain = 0
KJTS 160240Z 13006KT 31/15 A2994 RMK A01 T03060151  RH  041%=      5-min Rain = 0
KJTS 160245Z 13006KT 31/15 A2995 RMK A01 T03050151  RH  041%=      5-min Rain = 0
KJTS 160250Z 13006KT 31/15 A2995 RMK A01 T03060151  RH  041%=      5-min Rain = 0
KJTS 160255Z 14006KT 31/15 A2996 RMK A01 T03060151  RH  041%=      5-min Rain = 0
KJTS 160300Z 14006KT 31/15 A2996 RMK A01 T03060152  RH  041%=      5-min Rain = 0
KJTS 160305Z 14006KT 31/15 A2996 RMK A01 T03050152  RH  041%=      5-min Rain = 0
KJTS 160310Z 13007KT 30/15 A2997 RMK A01 T03040152  RH  042%=      5-min Rain = 0
KJTS 160315Z 13006KT 30/15 A2997 RMK A01 T03010152  RH  042%=      5-min Rain = 0
KJTS 160320Z 13006KT 30/15 A2997 RMK A01 T02990153  RH  043%=      5-min Rain = 0
KJTS 160325Z 13006KT 30/15 A2997 RMK A01 T02960153  RH  044%=      5-min Rain = 0
KJTS 160330Z 13007KT 30/15 A2998 RMK A01 T02950153  RH  044%=      5-min Rain = 0
KJTS 160335Z 13007KT 30/15 A2998 RMK A01 T02960153  RH  044%=      5-min Rain = 0
KJTS 160340Z 13007KT 30/15 A2998 RMK A01 T02980153  RH  043%=      5-min Rain = 0
KJTS 160345Z 13007KT 30/15 A2998 RMK A01 T02980153  RH  043%=      5-min Rain = 0
KJTS 160350Z 13007KT 30/15 A2998 RMK A01 T02970153  RH  043%=      5-min Rain = 0
KJTS 160355Z 13007KT 30/15 A2998 RMK A01 T02970153  RH  043%=      5-min Rain = 0
KJTS 160400Z 14007KT 30/15 A2998 RMK A01 T02980152  RH  043%=      5-min Rain = 0
KJTS 160405Z 14007KT 30/15 A2998 RMK A01 T02980152  RH  043%=      5-min Rain = 0
KJTS 160410Z 13007KT 30/15 A2998 RMK A01 T02970152  RH  043%=      5-min Rain = 0
KJTS 160415Z 12006KT 30/15 A2999 RMK A01 T02960152  RH  044%=      5-min Rain = 0
KJTS 160420Z 11006KT 29/15 A2999 RMK A01 T02910152  RH  045%=      5-min Rain = 0
KJTS 160425Z 12006KT 29/15 A30 RMK A01 T02870153  RH  046%=      5-min Rain = 0
KJTS 160430Z 13006KT 29/15 A2999 RMK A01 T02860153  RH  046%=      5-min Rain = 0
KJTS 160435Z 13006KT 29/15 A2999 RMK A01 T02870153  RH  046%=      5-min Rain = 0
KJTS 160440Z 13006KT 29/15 A2999 RMK A01 T02860153  RH  046%=      5-min Rain = 0
KJTS 160445Z 13006KT 28/15 A2999 RMK A01 T02840153  RH  047%=      5-min Rain = 0
KJTS 160450Z 14006KT 28/15 A2999 RMK A01 T02840153  RH  047%=      5-min Rain = 0
KJTS 160455Z 14006KT 28/15 A2999 RMK A01 T02830152  RH  047%=      5-min Rain = 0

Page generated in 0.009 seconds.